ティラナ の空港の天気 - METARとTAF

ティラナ・リナ空港 ( LATI / TIA ) - アルバニア ティラナ
飛行場実況気象(Metar)
観測時間07/17 10:20 CEST (07/17 08:20 UTC)
風向・風速北北西 1m/s
視程10km以上
天気現象
なし
気温26℃
湿度51%
気圧1010hPa
METARLATI 170820Z 33002KT CAVOK 26/15 Q1010 NOSIG
過去の天気等 Google飛行場航空写真 Wunderground天気予報

過去48時間のMETAR

飛行場予報(TAF)
発表時間: 7/17 07:00 CEST (7/17 05:00 UTC)
予報対象時間: 17日8時 CEST ~ 18日8時 CEST
風向・風速不定 2m/s
視程10km以上
なし
TAF LATI 170500Z 1706/1806 VRB04KT CAVOK